Irkutsk Airport
UIII : now visible

Airfield :











YOU CAN JOIN US ON...

 
LOGIN :

Register | Disclaimer

   EN    FR    IT 

 









Legend :    VFR   Marginal VFR   IFR   Intensive IFR   Very Intensive IFR
Visi :
Ceiling :
>= 8 km
>= 3000ft
5 to 8 km
1000 to 3000 ft
1500m to 5 km
500 to 1000 ft
800 to 1500m
200 to 500 ft
< 800m
< 200 ft
Symbols :   Thunderstorms  Fog  Heavy snow  Heavy precipitations  Wind > 20 kt






- Airport Elevation : 1675 ft
- IATA code : IKT


UIII - Irkutsk

CURRENT METAR :
  • 020800Z 32005MPS 290V350 CAVOK 16/M09 Q1022 R30/CLRD60 NOSIG RMK QFE721/0962

EXPIRED METARs :
  • 020730Z 31004MPS CAVOK 15/M09 Q1022 R30/60D NOSIG RMK QFE721/0962
  • 020700Z 31005MPS 270V350 CAVOK 15/M09 Q1022 R30/CLRD60 NOSIG RMK QFE721/0962
  • 020630Z 31005MPS 280V360 CAVOK 15/M10 Q1022 R30/CLRD60 NOSIG RMK QFE722/0962
  • 020600Z 31004MPS 280V340 CAVOK 15/M09 Q1022 R30/CLRD60 NOSIG RMK QFE722/0963
  • 020530Z 29004MPS 260V340 CAVOK 14/M07 Q1023 R30/60D NOSIG RMK QFE722/0963

TAF TAF UIII
Valid from the 02 at 06:00 until the 03 at 06:00 UTC


020500Z 0206/0306 30003MPS CAVOK



MET'MAP, your aeronautical weather chart ! - Copyright ORBIFLY December 2007 - Disclaimer

ORBIFLY MET'MAP TEAM :

Programming & Development : Alexandra Zaïnal
Concept & original design : Baudouin d'Aumeries
Assistance for programming : Marc-Olivier Méhu
Technical & hardware support : Manuel Goepfert

Contact : metmap@orbifly.com




SOURCES & CREDITS :

   NOAA       Earth
Advisory